sensor_id;sensor_type;location;lat;lon;timestamp;P1;durP1;ratioP1;P2;durP2;ratioP2
14241;SDS011;7205;50.864;12.766;2023-11-21T00:02:12;2.07;;;1.00;;
14241;SDS011;7205;50.864;12.766;2023-11-21T00:04:44;1.20;;;1.20;;
14241;SDS011;7205;50.864;12.766;2023-11-21T00:07:10;1.20;;;1.20;;
14241;SDS011;7205;50.864;12.766;2023-11-21T00:09:36;1.33;;;1.23;;
14241;SDS011;7205;50.864;12.766;2023-11-21T00:12:13;1.37;;;1.20;;
14241;SDS011;7205;50.864;12.766;2023-11-21T00:14:51;2.00;;;1.10;;
14241;SDS011;7205;50.864;12.766;2023-11-21T00:17:18;1.63;;;1.20;;
14241;SDS011;7205;50.864;12.766;2023-11-21T00:19:45;1.30;;;1.20;;
14241;SDS011;7205;50.864;12.766;2023-11-21T00:22:12;1.13;;;1.10;;
14241;SDS011;7205;50.864;12.766;2023-11-21T00:24:43;2.27;;;1.47;;
14241;SDS011;7205;50.864;12.766;2023-11-21T00:27:10;2.03;;;1.13;;
14241;SDS011;7205;50.864;12.766;2023-11-21T00:29:38;1.77;;;1.40;;
14241;SDS011;7205;50.864;12.766;2023-11-21T00:32:05;1.50;;;1.03;;
14241;SDS011;7205;50.864;12.766;2023-11-21T00:34:32;3.33;;;1.30;;
14241;SDS011;7205;50.864;12.766;2023-11-21T00:37:01;1.80;;;1.20;;
14241;SDS011;7205;50.864;12.766;2023-11-21T00:39:30;1.13;;;1.07;;
14241;SDS011;7205;50.864;12.766;2023-11-21T00:42:02;1.67;;;1.37;;
14241;SDS011;7205;50.864;12.766;2023-11-21T00:44:30;1.40;;;1.30;;
14241;SDS011;7205;50.864;12.766;2023-11-21T00:47:08;1.30;;;1.20;;
14241;SDS011;7205;50.864;12.766;2023-11-21T00:49:34;2.30;;;1.50;;
14241;SDS011;7205;50.864;12.766;2023-11-21T00:52:04;1.30;;;1.20;;
14241;SDS011;7205;50.864;12.766;2023-11-21T00:54:32;2.07;;;1.13;;
14241;SDS011;7205;50.864;12.766;2023-11-21T00:57:04;1.57;;;1.10;;
14241;SDS011;7205;50.864;12.766;2023-11-21T00:59:33;2.33;;;0.90;;
14241;SDS011;7205;50.864;12.766;2023-11-21T01:02:02;1.00;;;1.00;;
14241;SDS011;7205;50.864;12.766;2023-11-21T01:04:30;2.90;;;1.67;;
14241;SDS011;7205;50.864;12.766;2023-11-21T01:06:58;1.47;;;1.20;;
14241;SDS011;7205;50.864;12.766;2023-11-21T01:09:25;2.03;;;1.10;;
14241;SDS011;7205;50.864;12.766;2023-11-21T01:11:53;1.80;;;1.50;;
14241;SDS011;7205;50.864;12.766;2023-11-21T01:14:20;1.40;;;1.30;;
14241;SDS011;7205;50.864;12.766;2023-11-21T01:16:46;1.43;;;1.17;;
14241;SDS011;7205;50.864;12.766;2023-11-21T01:19:22;3.37;;;1.73;;
14241;SDS011;7205;50.864;12.766;2023-11-21T01:21:49;1.83;;;1.30;;
14241;SDS011;7205;50.864;12.766;2023-11-21T01:24:17;1.83;;;1.30;;
14241;SDS011;7205;50.864;12.766;2023-11-21T01:26:44;2.90;;;1.50;;
14241;SDS011;7205;50.864;12.766;2023-11-21T01:29:11;2.77;;;1.30;;
14241;SDS011;7205;50.864;12.766;2023-11-21T01:31:38;1.70;;;1.30;;
14241;SDS011;7205;50.864;12.766;2023-11-21T01:34:05;3.03;;;1.60;;
14241;SDS011;7205;50.864;12.766;2023-11-21T01:36:33;2.53;;;1.83;;
14241;SDS011;7205;50.864;12.766;2023-11-21T01:39:03;2.37;;;1.67;;
14241;SDS011;7205;50.864;12.766;2023-11-21T01:41:33;3.23;;;1.60;;
14241;SDS011;7205;50.864;12.766;2023-11-21T01:44:01;4.13;;;1.50;;
14241;SDS011;7205;50.864;12.766;2023-11-21T01:46:28;2.20;;;1.57;;
14241;SDS011;7205;50.864;12.766;2023-11-21T01:48:55;2.80;;;1.80;;
14241;SDS011;7205;50.864;12.766;2023-11-21T01:51:26;1.63;;;1.53;;
14241;SDS011;7205;50.864;12.766;2023-11-21T01:53:54;1.80;;;1.70;;
14241;SDS011;7205;50.864;12.766;2023-11-21T01:56:21;5.00;;;1.43;;
14241;SDS011;7205;50.864;12.766;2023-11-21T01:58:48;2.60;;;1.60;;
14241;SDS011;7205;50.864;12.766;2023-11-21T02:01:19;4.30;;;1.60;;
14241;SDS011;7205;50.864;12.766;2023-11-21T02:03:45;2.00;;;1.10;;
14241;SDS011;7205;50.864;12.766;2023-11-21T02:06:12;1.47;;;1.33;;
14241;SDS011;7205;50.864;12.766;2023-11-21T02:08:39;2.30;;;1.40;;
14241;SDS011;7205;50.864;12.766;2023-11-21T02:11:09;2.63;;;1.60;;
14241;SDS011;7205;50.864;12.766;2023-11-21T02:13:38;1.57;;;1.20;;
14241;SDS011;7205;50.864;12.766;2023-11-21T02:16:08;2.17;;;1.10;;
14241;SDS011;7205;50.864;12.766;2023-11-21T02:18:35;1.33;;;1.27;;
14241;SDS011;7205;50.864;12.766;2023-11-21T02:21:04;2.60;;;1.30;;
14241;SDS011;7205;50.864;12.766;2023-11-21T02:23:32;4.00;;;1.30;;
14241;SDS011;7205;50.864;12.766;2023-11-21T02:25:59;2.40;;;1.37;;
14241;SDS011;7205;50.864;12.766;2023-11-21T02:28:29;2.03;;;1.60;;
14241;SDS011;7205;50.864;12.766;2023-11-21T02:30:56;1.60;;;1.50;;
14241;SDS011;7205;50.864;12.766;2023-11-21T02:33:24;1.83;;;1.30;;
14241;SDS011;7205;50.864;12.766;2023-11-21T02:35:51;2.23;;;1.40;;
14241;SDS011;7205;50.864;12.766;2023-11-21T02:38:20;1.90;;;1.20;;
14241;SDS011;7205;50.864;12.766;2023-11-21T02:40:48;4.07;;;1.90;;
14241;SDS011;7205;50.864;12.766;2023-11-21T02:43:15;1.43;;;1.20;;
14241;SDS011;7205;50.864;12.766;2023-11-21T02:45:42;1.20;;;1.20;;
14241;SDS011;7205;50.864;12.766;2023-11-21T02:48:08;1.60;;;1.13;;
14241;SDS011;7205;50.864;12.766;2023-11-21T02:50:39;1.50;;;1.20;;
14241;SDS011;7205;50.864;12.766;2023-11-21T02:53:08;4.30;;;1.10;;
14241;SDS011;7205;50.864;12.766;2023-11-21T02:55:36;1.43;;;1.00;;
14241;SDS011;7205;50.864;12.766;2023-11-21T02:58:04;3.50;;;1.13;;
14241;SDS011;7205;50.864;12.766;2023-11-21T03:00:31;1.93;;;0.90;;
14241;SDS011;7205;50.864;12.766;2023-11-21T03:02:58;2.70;;;1.27;;
14241;SDS011;7205;50.864;12.766;2023-11-21T03:05:25;1.30;;;1.03;;
14241;SDS011;7205;50.864;12.766;2023-11-21T03:07:54;1.50;;;1.40;;
14241;SDS011;7205;50.864;12.766;2023-11-21T03:10:21;3.53;;;1.40;;
14241;SDS011;7205;50.864;12.766;2023-11-21T03:12:51;1.10;;;1.00;;
14241;SDS011;7205;50.864;12.766;2023-11-21T03:15:19;1.50;;;1.40;;
14241;SDS011;7205;50.864;12.766;2023-11-21T03:17:46;2.30;;;1.50;;
14241;SDS011;7205;50.864;12.766;2023-11-21T03:20:14;1.60;;;1.07;;
14241;SDS011;7205;50.864;12.766;2023-11-21T03:22:41;1.73;;;1.37;;
14241;SDS011;7205;50.864;12.766;2023-11-21T03:25:08;1.53;;;1.40;;
14241;SDS011;7205;50.864;12.766;2023-11-21T03:27:36;2.60;;;1.17;;
14241;SDS011;7205;50.864;12.766;2023-11-21T03:30:04;3.43;;;1.40;;
14241;SDS011;7205;50.864;12.766;2023-11-21T03:32:34;8.53;;;1.30;;
14241;SDS011;7205;50.864;12.766;2023-11-21T03:35:01;2.23;;;1.10;;
14241;SDS011;7205;50.864;12.766;2023-11-21T03:37:28;1.47;;;1.10;;
14241;SDS011;7205;50.864;12.766;2023-11-21T03:39:55;2.43;;;1.40;;
14241;SDS011;7205;50.864;12.766;2023-11-21T03:42:22;3.73;;;1.53;;
14241;SDS011;7205;50.864;12.766;2023-11-21T03:44:50;2.27;;;1.20;;
14241;SDS011;7205;50.864;12.766;2023-11-21T03:47:17;2.43;;;1.30;;
14241;SDS011;7205;50.864;12.766;2023-11-21T03:49:45;2.60;;;1.30;;
14241;SDS011;7205;50.864;12.766;2023-11-21T03:52:15;4.30;;;1.60;;
14241;SDS011;7205;50.864;12.766;2023-11-21T03:54:42;1.77;;;1.40;;
14241;SDS011;7205;50.864;12.766;2023-11-21T03:57:09;1.80;;;1.43;;
14241;SDS011;7205;50.864;12.766;2023-11-21T03:59:36;3.70;;;1.80;;
14241;SDS011;7205;50.864;12.766;2023-11-21T04:02:03;2.90;;;1.60;;
14241;SDS011;7205;50.864;12.766;2023-11-21T04:04:30;2.67;;;1.90;;
14241;SDS011;7205;50.864;12.766;2023-11-21T04:06:58;4.80;;;1.57;;
14241;SDS011;7205;50.864;12.766;2023-11-21T04:09:25;1.67;;;1.40;;
14241;SDS011;7205;50.864;12.766;2023-11-21T04:11:52;2.57;;;1.70;;
14241;SDS011;7205;50.864;12.766;2023-11-21T04:14:19;1.70;;;1.50;;
14241;SDS011;7205;50.864;12.766;2023-11-21T04:16:46;2.07;;;1.73;;
14241;SDS011;7205;50.864;12.766;2023-11-21T04:19:13;1.80;;;1.47;;
14241;SDS011;7205;50.864;12.766;2023-11-21T04:21:40;2.60;;;1.63;;
14241;SDS011;7205;50.864;12.766;2023-11-21T04:24:09;1.30;;;1.20;;
14241;SDS011;7205;50.864;12.766;2023-11-21T04:26:36;1.40;;;1.17;;
14241;SDS011;7205;50.864;12.766;2023-11-21T04:29:03;1.87;;;1.47;;
14241;SDS011;7205;50.864;12.766;2023-11-21T04:31:30;1.60;;;1.40;;
14241;SDS011;7205;50.864;12.766;2023-11-21T04:33:58;3.40;;;1.40;;
14241;SDS011;7205;50.864;12.766;2023-11-21T04:36:24;3.17;;;1.57;;
14241;SDS011;7205;50.864;12.766;2023-11-21T04:38:51;3.60;;;1.60;;
14241;SDS011;7205;50.864;12.766;2023-11-21T04:41:19;4.33;;;1.60;;
14241;SDS011;7205;50.864;12.766;2023-11-21T04:43:46;1.80;;;1.70;;
14241;SDS011;7205;50.864;12.766;2023-11-21T04:46:13;1.50;;;1.40;;
14241;SDS011;7205;50.864;12.766;2023-11-21T04:48:40;3.37;;;1.60;;
14241;SDS011;7205;50.864;12.766;2023-11-21T04:51:06;4.33;;;1.70;;
14241;SDS011;7205;50.864;12.766;2023-11-21T04:53:33;3.20;;;1.67;;
14241;SDS011;7205;50.864;12.766;2023-11-21T04:56:01;2.10;;;1.70;;
14241;SDS011;7205;50.864;12.766;2023-11-21T04:58:30;1.90;;;1.60;;
14241;SDS011;7205;50.864;12.766;2023-11-21T05:00:58;2.00;;;1.70;;
14241;SDS011;7205;50.864;12.766;2023-11-21T05:03:26;3.47;;;1.93;;
14241;SDS011;7205;50.864;12.766;2023-11-21T05:05:55;4.57;;;1.90;;
14241;SDS011;7205;50.864;12.766;2023-11-21T05:08:21;3.10;;;1.90;;
14241;SDS011;7205;50.864;12.766;2023-11-21T05:10:51;2.37;;;1.83;;
14241;SDS011;7205;50.864;12.766;2023-11-21T05:13:18;2.60;;;1.90;;
14241;SDS011;7205;50.864;12.766;2023-11-21T05:15:46;4.30;;;2.10;;
14241;SDS011;7205;50.864;12.766;2023-11-21T05:18:13;4.53;;;2.63;;
14241;SDS011;7205;50.864;12.766;2023-11-21T05:20:40;3.53;;;2.53;;
14241;SDS011;7205;50.864;12.766;2023-11-21T05:23:07;3.63;;;2.40;;
14241;SDS011;7205;50.864;12.766;2023-11-21T05:25:34;3.03;;;2.43;;
14241;SDS011;7205;50.864;12.766;2023-11-21T05:28:01;3.40;;;2.57;;
14241;SDS011;7205;50.864;12.766;2023-11-21T05:30:29;3.80;;;2.67;;
14241;SDS011;7205;50.864;12.766;2023-11-21T05:32:57;4.57;;;2.87;;
14241;SDS011;7205;50.864;12.766;2023-11-21T05:35:24;5.57;;;3.00;;
14241;SDS011;7205;50.864;12.766;2023-11-21T05:37:51;3.90;;;2.97;;
14241;SDS011;7205;50.864;12.766;2023-11-21T05:40:18;6.13;;;3.50;;
14241;SDS011;7205;50.864;12.766;2023-11-21T05:42:47;3.40;;;2.93;;
14241;SDS011;7205;50.864;12.766;2023-11-21T05:45:14;4.87;;;3.47;;
14241;SDS011;7205;50.864;12.766;2023-11-21T05:47:42;5.10;;;3.43;;
14241;SDS011;7205;50.864;12.766;2023-11-21T05:50:12;4.03;;;3.10;;
14241;SDS011;7205;50.864;12.766;2023-11-21T05:52:40;5.23;;;3.67;;
14241;SDS011;7205;50.864;12.766;2023-11-21T05:55:08;4.13;;;3.50;;
14241;SDS011;7205;50.864;12.766;2023-11-21T05:57:35;7.60;;;3.10;;
14241;SDS011;7205;50.864;12.766;2023-11-21T06:00:03;4.03;;;3.63;;
14241;SDS011;7205;50.864;12.766;2023-11-21T06:02:36;5.03;;;3.80;;
14241;SDS011;7205;50.864;12.766;2023-11-21T06:05:09;5.90;;;3.80;;
14241;SDS011;7205;50.864;12.766;2023-11-21T06:07:38;5.70;;;3.73;;
14241;SDS011;7205;50.864;12.766;2023-11-21T06:10:05;4.07;;;3.67;;
14241;SDS011;7205;50.864;12.766;2023-11-21T06:12:34;6.43;;;3.53;;
14241;SDS011;7205;50.864;12.766;2023-11-21T06:15:01;5.60;;;4.10;;
14241;SDS011;7205;50.864;12.766;2023-11-21T06:17:30;5.03;;;4.47;;
14241;SDS011;7205;50.864;12.766;2023-11-21T06:19:59;12.17;;;4.40;;
14241;SDS011;7205;50.864;12.766;2023-11-21T06:22:26;5.37;;;3.97;;
14241;SDS011;7205;50.864;12.766;2023-11-21T06:24:54;5.27;;;4.00;;
14241;SDS011;7205;50.864;12.766;2023-11-21T06:27:21;4.47;;;3.40;;
14241;SDS011;7205;50.864;12.766;2023-11-21T06:29:50;4.13;;;3.63;;
14241;SDS011;7205;50.864;12.766;2023-11-21T06:32:17;3.87;;;3.30;;
14241;SDS011;7205;50.864;12.766;2023-11-21T06:34:45;3.90;;;3.50;;
14241;SDS011;7205;50.864;12.766;2023-11-21T06:37:12;4.37;;;3.23;;
14241;SDS011;7205;50.864;12.766;2023-11-21T06:39:39;4.30;;;3.70;;
14241;SDS011;7205;50.864;12.766;2023-11-21T06:42:08;4.20;;;3.40;;
14241;SDS011;7205;50.864;12.766;2023-11-21T06:44:34;3.70;;;3.40;;
14241;SDS011;7205;50.864;12.766;2023-11-21T06:47:02;3.47;;;3.10;;
14241;SDS011;7205;50.864;12.766;2023-11-21T06:49:29;3.37;;;2.83;;
14241;SDS011;7205;50.864;12.766;2023-11-21T06:51:56;4.67;;;2.90;;
14241;SDS011;7205;50.864;12.766;2023-11-21T06:54:23;3.47;;;3.17;;
14241;SDS011;7205;50.864;12.766;2023-11-21T06:56:50;5.07;;;2.80;;
14241;SDS011;7205;50.864;12.766;2023-11-21T06:59:20;2.80;;;2.60;;
14241;SDS011;7205;50.864;12.766;2023-11-21T07:01:46;3.53;;;2.77;;
14241;SDS011;7205;50.864;12.766;2023-11-21T07:04:13;3.97;;;3.20;;
14241;SDS011;7205;50.864;12.766;2023-11-21T07:06:40;5.33;;;2.93;;
14241;SDS011;7205;50.864;12.766;2023-11-21T07:09:08;4.63;;;2.97;;
14241;SDS011;7205;50.864;12.766;2023-11-21T07:11:36;3.93;;;2.90;;
14241;SDS011;7205;50.864;12.766;2023-11-21T07:14:03;4.40;;;2.80;;
14241;SDS011;7205;50.864;12.766;2023-11-21T07:16:34;3.50;;;2.77;;
14241;SDS011;7205;50.864;12.766;2023-11-21T07:19:02;6.33;;;3.00;;
14241;SDS011;7205;50.864;12.766;2023-11-21T07:21:31;4.40;;;2.80;;
14241;SDS011;7205;50.864;12.766;2023-11-21T07:23:58;5.33;;;3.37;;
14241;SDS011;7205;50.864;12.766;2023-11-21T07:26:24;8.37;;;3.23;;
14241;SDS011;7205;50.864;12.766;2023-11-21T07:28:52;3.30;;;3.10;;
14241;SDS011;7205;50.864;12.766;2023-11-21T07:31:18;4.57;;;3.80;;
14241;SDS011;7205;50.864;12.766;2023-11-21T07:33:47;9.17;;;4.03;;
14241;SDS011;7205;50.864;12.766;2023-11-21T07:36:14;5.90;;;3.93;;
14241;SDS011;7205;50.864;12.766;2023-11-21T07:38:41;6.37;;;4.10;;
14241;SDS011;7205;50.864;12.766;2023-11-21T07:41:08;5.00;;;3.70;;
14241;SDS011;7205;50.864;12.766;2023-11-21T07:43:35;5.00;;;4.57;;
14241;SDS011;7205;50.864;12.766;2023-11-21T07:46:08;6.13;;;4.30;;
14241;SDS011;7205;50.864;12.766;2023-11-21T07:48:42;4.07;;;3.53;;
14241;SDS011;7205;50.864;12.766;2023-11-21T07:51:13;8.30;;;4.47;;
14241;SDS011;7205;50.864;12.766;2023-11-21T07:53:39;6.17;;;4.00;;
14241;SDS011;7205;50.864;12.766;2023-11-21T07:56:10;5.37;;;3.97;;
14241;SDS011;7205;50.864;12.766;2023-11-21T07:58:38;5.47;;;4.30;;
14241;SDS011;7205;50.864;12.766;2023-11-21T08:01:05;8.00;;;4.73;;
14241;SDS011;7205;50.864;12.766;2023-11-21T08:03:31;7.07;;;4.77;;
14241;SDS011;7205;50.864;12.766;2023-11-21T08:06:01;8.27;;;4.50;;
14241;SDS011;7205;50.864;12.766;2023-11-21T08:08:32;8.60;;;5.70;;
14241;SDS011;7205;50.864;12.766;2023-11-21T08:10:59;9.83;;;5.00;;
14241;SDS011;7205;50.864;12.766;2023-11-21T08:13:27;10.80;;;5.20;;
14241;SDS011;7205;50.864;12.766;2023-11-21T08:15:55;5.27;;;4.53;;
14241;SDS011;7205;50.864;12.766;2023-11-21T08:18:26;6.97;;;5.40;;
14241;SDS011;7205;50.864;12.766;2023-11-21T08:20:54;9.80;;;5.40;;
14241;SDS011;7205;50.864;12.766;2023-11-21T08:23:21;12.97;;;5.60;;
14241;SDS011;7205;50.864;12.766;2023-11-21T08:25:52;7.90;;;5.37;;
14241;SDS011;7205;50.864;12.766;2023-11-21T08:28:19;12.07;;;6.10;;
14241;SDS011;7205;50.864;12.766;2023-11-21T08:30:49;6.97;;;5.43;;
14241;SDS011;7205;50.864;12.766;2023-11-21T08:33:16;14.53;;;6.63;;
14241;SDS011;7205;50.864;12.766;2023-11-21T08:35:43;9.40;;;6.03;;
14241;SDS011;7205;50.864;12.766;2023-11-21T08:38:11;13.23;;;6.33;;
14241;SDS011;7205;50.864;12.766;2023-11-21T08:40:38;13.53;;;7.57;;
14241;SDS011;7205;50.864;12.766;2023-11-21T08:43:06;12.13;;;7.63;;
14241;SDS011;7205;50.864;12.766;2023-11-21T08:45:33;14.40;;;7.87;;
14241;SDS011;7205;50.864;12.766;2023-11-21T08:48:00;15.27;;;8.33;;
14241;SDS011;7205;50.864;12.766;2023-11-21T08:50:27;14.80;;;8.27;;
14241;SDS011;7205;50.864;12.766;2023-11-21T08:52:54;19.20;;;8.57;;
14241;SDS011;7205;50.864;12.766;2023-11-21T08:55:20;11.47;;;7.83;;
14241;SDS011;7205;50.864;12.766;2023-11-21T08:57:47;9.47;;;7.37;;
14241;SDS011;7205;50.864;12.766;2023-11-21T09:00:22;14.73;;;7.97;;
14241;SDS011;7205;50.864;12.766;2023-11-21T09:02:49;14.20;;;7.70;;
14241;SDS011;7205;50.864;12.766;2023-11-21T09:05:15;11.93;;;7.80;;
14241;SDS011;7205;50.864;12.766;2023-11-21T09:07:42;7.97;;;7.10;;
14241;SDS011;7205;50.864;12.766;2023-11-21T09:10:11;11.93;;;7.33;;
14241;SDS011;7205;50.864;12.766;2023-11-21T09:12:38;9.90;;;7.13;;
14241;SDS011;7205;50.864;12.766;2023-11-21T09:15:05;11.47;;;6.97;;
14241;SDS011;7205;50.864;12.766;2023-11-21T09:17:37;9.83;;;6.60;;
14241;SDS011;7205;50.864;12.766;2023-11-21T09:20:06;7.43;;;6.50;;
14241;SDS011;7205;50.864;12.766;2023-11-21T09:22:41;11.07;;;6.80;;
14241;SDS011;7205;50.864;12.766;2023-11-21T09:25:23;8.83;;;6.47;;
14241;SDS011;7205;50.864;12.766;2023-11-21T09:27:59;7.53;;;5.60;;
14241;SDS011;7205;50.864;12.766;2023-11-21T09:31:04;9.80;;;7.20;;
14241;SDS011;7205;50.864;12.766;2023-11-21T09:38:16;6.60;;;5.83;;
14241;SDS011;7205;50.864;12.766;2023-11-21T09:40:49;6.50;;;5.80;;
14241;SDS011;7205;50.864;12.766;2023-11-21T09:47:37;6.97;;;5.30;;
14241;SDS011;7205;50.864;12.766;2023-11-21T10:01:29;9.50;;;6.80;;
14241;SDS011;7205;50.864;12.766;2023-11-21T10:04:04;15.00;;;8.80;;
14241;SDS011;7205;50.864;12.766;2023-11-21T10:06:41;20.73;;;8.73;;
14241;SDS011;7205;50.864;12.766;2023-11-21T10:09:14;66.17;;;9.87;;
14241;SDS011;7205;50.864;12.766;2023-11-21T10:11:47;115.70;;;11.00;;
14241;SDS011;7205;50.864;12.766;2023-11-21T10:14:17;259.87;;;18.67;;
14241;SDS011;7205;50.864;12.766;2023-11-21T10:16:48;271.60;;;17.77;;
14241;SDS011;7205;50.864;12.766;2023-11-21T10:19:16;344.80;;;21.47;;
14241;SDS011;7205;50.864;12.766;2023-11-21T10:21:44;153.50;;;14.10;;
14241;SDS011;7205;50.864;12.766;2023-11-21T10:24:11;346.70;;;20.13;;
14241;SDS011;7205;50.864;12.766;2023-11-21T10:26:38;314.47;;;20.20;;
14241;SDS011;7205;50.864;12.766;2023-11-21T10:29:07;255.07;;;16.10;;
14241;SDS011;7205;50.864;12.766;2023-11-21T10:31:34;465.37;;;23.93;;
14241;SDS011;7205;50.864;12.766;2023-11-21T10:34:13;350.23;;;21.80;;
14241;SDS011;7205;50.864;12.766;2023-11-21T10:36:49;396.10;;;21.07;;
14241;SDS011;7205;50.864;12.766;2023-11-21T10:39:16;182.47;;;14.73;;
14241;SDS011;7205;50.864;12.766;2023-11-21T10:41:47;49.37;;;8.93;;
14241;SDS011;7205;50.864;12.766;2023-11-21T10:44:19;143.63;;;13.83;;
14241;SDS011;7205;50.864;12.766;2023-11-21T10:46:50;376.33;;;22.73;;
14241;SDS011;7205;50.864;12.766;2023-11-21T10:52:52;409.50;;;18.07;;
14241;SDS011;7205;50.864;12.766;2023-11-21T10:55:19;379.10;;;18.93;;
14241;SDS011;7205;50.864;12.766;2023-11-21T10:57:49;443.20;;;21.33;;
14241;SDS011;7205;50.864;12.766;2023-11-21T11:00:19;286.57;;;17.63;;
14241;SDS011;7205;50.864;12.766;2023-11-21T11:02:50;322.60;;;15.37;;
14241;SDS011;7205;50.864;12.766;2023-11-21T11:05:20;384.30;;;20.40;;
14241;SDS011;7205;50.864;12.766;2023-11-21T11:07:50;267.00;;;21.37;;
14241;SDS011;7205;50.864;12.766;2023-11-21T11:10:25;291.23;;;22.53;;
14241;SDS011;7205;50.864;12.766;2023-11-21T11:12:52;94.20;;;9.43;;
14241;SDS011;7205;50.864;12.766;2023-11-21T11:15:23;40.23;;;6.47;;
14241;SDS011;7205;50.864;12.766;2023-11-21T11:17:51;35.63;;;6.23;;
14241;SDS011;7205;50.864;12.766;2023-11-21T11:20:22;65.30;;;9.07;;
14241;SDS011;7205;50.864;12.766;2023-11-21T11:22:56;393.43;;;19.00;;
14241;SDS011;7205;50.864;12.766;2023-11-21T11:25:47;234.57;;;13.20;;
14241;SDS011;7205;50.864;12.766;2023-11-21T11:28:29;173.67;;;11.90;;
14241;SDS011;7205;50.864;12.766;2023-11-21T11:31:09;139.90;;;10.57;;
14241;SDS011;7205;50.864;12.766;2023-11-21T11:33:43;430.10;;;20.13;;
14241;SDS011;7205;50.864;12.766;2023-11-21T11:36:16;441.17;;;20.53;;
14241;SDS011;7205;50.864;12.766;2023-11-21T11:38:49;9.67;;;4.83;;
14241;SDS011;7205;50.864;12.766;2023-11-21T11:41:24;9.27;;;5.30;;
14241;SDS011;7205;50.864;12.766;2023-11-21T11:43:52;10.50;;;5.30;;
14241;SDS011;7205;50.864;12.766;2023-11-21T11:46:19;8.30;;;4.63;;
14241;SDS011;7205;50.864;12.766;2023-11-21T11:48:48;7.43;;;5.13;;
14241;SDS011;7205;50.864;12.766;2023-11-21T11:51:28;6.77;;;4.70;;
14241;SDS011;7205;50.864;12.766;2023-11-21T11:53:58;10.23;;;5.00;;
14241;SDS011;7205;50.864;12.766;2023-11-21T11:56:25;9.20;;;5.00;;
14241;SDS011;7205;50.864;12.766;2023-11-21T11:58:53;8.53;;;5.00;;
14241;SDS011;7205;50.864;12.766;2023-11-21T12:01:21;11.77;;;5.60;;
14241;SDS011;7205;50.864;12.766;2023-11-21T12:07:02;6.30;;;5.00;;
14241;SDS011;7205;50.864;12.766;2023-11-21T12:09:33;8.40;;;5.00;;
14241;SDS011;7205;50.864;12.766;2023-11-21T12:12:02;6.17;;;5.10;;
14241;SDS011;7205;50.864;12.766;2023-11-21T12:14:34;12.13;;;6.10;;
14241;SDS011;7205;50.864;12.766;2023-11-21T12:17:05;96.67;;;10.47;;
14241;SDS011;7205;50.864;12.766;2023-11-21T12:19:42;138.00;;;12.00;;
14241;SDS011;7205;50.864;12.766;2023-11-21T12:22:09;144.40;;;11.27;;
14241;SDS011;7205;50.864;12.766;2023-11-21T12:24:37;369.90;;;20.70;;
14241;SDS011;7205;50.864;12.766;2023-11-21T12:30:50;333.00;;;18.37;;
14241;SDS011;7205;50.864;12.766;2023-11-21T12:33:17;523.43;;;26.07;;
14241;SDS011;7205;50.864;12.766;2023-11-21T12:35:44;258.47;;;16.33;;
14241;SDS011;7205;50.864;12.766;2023-11-21T12:38:11;470.20;;;22.13;;
14241;SDS011;7205;50.864;12.766;2023-11-21T12:40:39;205.20;;;12.97;;
14241;SDS011;7205;50.864;12.766;2023-11-21T12:43:06;162.60;;;11.50;;
14241;SDS011;7205;50.864;12.766;2023-11-21T12:45:36;177.07;;;14.00;;
14241;SDS011;7205;50.864;12.766;2023-11-21T12:48:06;519.70;;;29.50;;
14241;SDS011;7205;50.864;12.766;2023-11-21T12:50:34;128.97;;;11.70;;
14241;SDS011;7205;50.864;12.766;2023-11-21T12:53:05;204.43;;;15.87;;
14241;SDS011;7205;50.864;12.766;2023-11-21T12:55:49;109.50;;;9.20;;
14241;SDS011;7205;50.864;12.766;2023-11-21T12:58:20;122.40;;;11.30;;
14241;SDS011;7205;50.864;12.766;2023-11-21T13:00:53;80.50;;;9.53;;
14241;SDS011;7205;50.864;12.766;2023-11-21T13:03:27;46.43;;;7.47;;
14241;SDS011;7205;50.864;12.766;2023-11-21T13:05:58;60.60;;;8.03;;
14241;SDS011;7205;50.864;12.766;2023-11-21T13:08:26;73.37;;;9.70;;
14241;SDS011;7205;50.864;12.766;2023-11-21T13:10:58;49.63;;;7.63;;
14241;SDS011;7205;50.864;12.766;2023-11-21T13:13:26;92.40;;;9.03;;
14241;SDS011;7205;50.864;12.766;2023-11-21T13:15:59;38.43;;;7.23;;
14241;SDS011;7205;50.864;12.766;2023-11-21T13:18:29;37.00;;;6.47;;
14241;SDS011;7205;50.864;12.766;2023-11-21T13:20:57;22.47;;;6.17;;
14241;SDS011;7205;50.864;12.766;2023-11-21T13:23:25;20.27;;;7.20;;
14241;SDS011;7205;50.864;12.766;2023-11-21T13:25:54;43.87;;;6.93;;
14241;SDS011;7205;50.864;12.766;2023-11-21T13:28:22;19.60;;;6.00;;
14241;SDS011;7205;50.864;12.766;2023-11-21T13:30:52;9.87;;;5.30;;
14241;SDS011;7205;50.864;12.766;2023-11-21T13:33:18;5.97;;;4.30;;
14241;SDS011;7205;50.864;12.766;2023-11-21T13:35:52;17.27;;;5.33;;
14241;SDS011;7205;50.864;12.766;2023-11-21T13:38:20;8.53;;;4.70;;
14241;SDS011;7205;50.864;12.766;2023-11-21T13:40:48;9.07;;;4.13;;
14241;SDS011;7205;50.864;12.766;2023-11-21T13:43:19;9.70;;;4.70;;
14241;SDS011;7205;50.864;12.766;2023-11-21T13:45:48;17.67;;;7.17;;
14241;SDS011;7205;50.864;12.766;2023-11-21T13:48:20;6.17;;;3.70;;
14241;SDS011;7205;50.864;12.766;2023-11-21T13:50:56;5.00;;;3.60;;
14241;SDS011;7205;50.864;12.766;2023-11-21T13:53:26;5.00;;;3.57;;
14241;SDS011;7205;50.864;12.766;2023-11-21T13:55:58;4.40;;;3.70;;
14241;SDS011;7205;50.864;12.766;2023-11-21T13:58:25;4.97;;;3.50;;
14241;SDS011;7205;50.864;12.766;2023-11-21T14:01:08;4.30;;;3.23;;
14241;SDS011;7205;50.864;12.766;2023-11-21T14:04:11;5.13;;;3.67;;
14241;SDS011;7205;50.864;12.766;2023-11-21T14:06:59;7.07;;;3.93;;
14241;SDS011;7205;50.864;12.766;2023-11-21T14:09:36;7.20;;;4.43;;
14241;SDS011;7205;50.864;12.766;2023-11-21T14:12:13;13.50;;;5.57;;
14241;SDS011;7205;50.864;12.766;2023-11-21T14:14:44;22.67;;;5.80;;
14241;SDS011;7205;50.864;12.766;2023-11-21T14:17:14;89.77;;;8.50;;
14241;SDS011;7205;50.864;12.766;2023-11-21T14:19:41;59.33;;;8.43;;
14241;SDS011;7205;50.864;12.766;2023-11-21T14:22:09;44.57;;;6.70;;
14241;SDS011;7205;50.864;12.766;2023-11-21T14:24:36;43.67;;;7.17;;
14241;SDS011;7205;50.864;12.766;2023-11-21T14:27:06;8.40;;;4.87;;
14241;SDS011;7205;50.864;12.766;2023-11-21T14:29:33;8.10;;;4.53;;
14241;SDS011;7205;50.864;12.766;2023-11-21T14:32:04;5.47;;;3.80;;
14241;SDS011;7205;50.864;12.766;2023-11-21T14:34:33;6.73;;;4.17;;
14241;SDS011;7205;50.864;12.766;2023-11-21T14:37:00;3.73;;;3.43;;
14241;SDS011;7205;50.864;12.766;2023-11-21T14:39:28;5.40;;;3.50;;
14241;SDS011;7205;50.864;12.766;2023-11-21T14:41:55;6.93;;;4.23;;
14241;SDS011;7205;50.864;12.766;2023-11-21T14:44:23;6.53;;;4.00;;
14241;SDS011;7205;50.864;12.766;2023-11-21T14:46:53;4.77;;;3.83;;
14241;SDS011;7205;50.864;12.766;2023-11-21T14:49:21;6.23;;;4.33;;
14241;SDS011;7205;50.864;12.766;2023-11-21T14:51:53;5.83;;;4.13;;
14241;SDS011;7205;50.864;12.766;2023-11-21T14:54:26;10.57;;;5.20;;
14241;SDS011;7205;50.864;12.766;2023-11-21T14:57:05;7.77;;;4.80;;
14241;SDS011;7205;50.864;12.766;2023-11-21T14:59:36;5.93;;;5.03;;
14241;SDS011;7205;50.864;12.766;2023-11-21T15:02:02;7.30;;;5.43;;
14241;SDS011;7205;50.864;12.766;2023-11-21T15:04:40;8.67;;;5.40;;
14241;SDS011;7205;50.864;12.766;2023-11-21T15:07:09;8.60;;;5.33;;
14241;SDS011;7205;50.864;12.766;2023-11-21T15:09:36;8.60;;;5.80;;
14241;SDS011;7205;50.864;12.766;2023-11-21T15:12:07;10.40;;;6.50;;
14241;SDS011;7205;50.864;12.766;2023-11-21T15:14:40;11.33;;;6.03;;
14241;SDS011;7205;50.864;12.766;2023-11-21T15:17:08;10.23;;;6.73;;
14241;SDS011;7205;50.864;12.766;2023-11-21T15:19:37;10.43;;;6.07;;
14241;SDS011;7205;50.864;12.766;2023-11-21T15:22:04;9.60;;;5.53;;
14241;SDS011;7205;50.864;12.766;2023-11-21T15:24:33;10.00;;;6.27;;